Nevins, Indiana
Current Conditions -  °F | °C
As of 10:38 PM on Monday 26 Jan 2015 (Local Time) from KHUF Reporting Station
Light Snow Light Snow  
Wind Chill: 28°   Ceiling: 400
Heat Index: 28°   Visibility: 3mi
Dew Point: 26°   Wind: 3mph
Humidity: 92%   Direction: 180°S
Pressure: 29.93"   Gusts: NA
Location:  39.5772°N, 87.241°W
Report Text: KHUF 270338Z 18003KT 3SM -SN BR OVC004 M02/M03 A2993 RMK AO2 P0000 T10221033
Loading
Personal Weather Stations






























Interactive Weather Map New forecast layout! Learn more

10-Day Weather Forecast

Advertisements
Track Severe Weather on mobile